sensor_id;sensor_type;location;lat;lon;timestamp;P1;durP1;ratioP1;P2;durP2;ratioP2
40849;SDS011;26571;41.610;25.380;2023-02-28T00:00:16;17.13;;;7.60;;
40849;SDS011;26571;41.610;25.380;2023-02-28T00:02:43;23.77;;;9.40;;
40849;SDS011;26571;41.610;25.380;2023-02-28T00:05:10;25.88;;;10.73;;
40849;SDS011;26571;41.610;25.380;2023-02-28T00:07:37;29.25;;;10.55;;
40849;SDS011;26571;41.610;25.380;2023-02-28T00:10:04;21.45;;;10.68;;
40849;SDS011;26571;41.610;25.380;2023-02-28T00:12:31;29.35;;;9.65;;
40849;SDS011;26571;41.610;25.380;2023-02-28T00:14:57;23.45;;;10.40;;
40849;SDS011;26571;41.610;25.380;2023-02-28T00:17:22;24.65;;;8.70;;
40849;SDS011;26571;41.610;25.380;2023-02-28T00:19:48;17.85;;;8.85;;
40849;SDS011;26571;41.610;25.380;2023-02-28T00:22:18;14.15;;;8.18;;
40849;SDS011;26571;41.610;25.380;2023-02-28T00:24:44;14.25;;;6.25;;
40849;SDS011;26571;41.610;25.380;2023-02-28T00:27:11;21.33;;;7.55;;
40849;SDS011;26571;41.610;25.380;2023-02-28T00:29:36;21.75;;;8.45;;
40849;SDS011;26571;41.610;25.380;2023-02-28T00:32:02;27.73;;;10.95;;
40849;SDS011;26571;41.610;25.380;2023-02-28T00:34:28;16.00;;;9.55;;
40849;SDS011;26571;41.610;25.380;2023-02-28T00:36:54;15.90;;;7.35;;
40849;SDS011;26571;41.610;25.380;2023-02-28T00:39:19;20.42;;;9.48;;
40849;SDS011;26571;41.610;25.380;2023-02-28T00:41:45;13.20;;;6.38;;
40849;SDS011;26571;41.610;25.380;2023-02-28T00:44:11;14.68;;;7.10;;
40849;SDS011;26571;41.610;25.380;2023-02-28T00:46:36;18.60;;;6.28;;
40849;SDS011;26571;41.610;25.380;2023-02-28T00:49:02;23.15;;;7.90;;
40849;SDS011;26571;41.610;25.380;2023-02-28T00:51:27;20.23;;;6.47;;
40849;SDS011;26571;41.610;25.380;2023-02-28T00:53:53;21.40;;;6.53;;
40849;SDS011;26571;41.610;25.380;2023-02-28T00:56:19;23.88;;;7.07;;
40849;SDS011;26571;41.610;25.380;2023-02-28T00:58:44;24.92;;;9.13;;
40849;SDS011;26571;41.610;25.380;2023-02-28T01:01:09;15.32;;;7.15;;
40849;SDS011;26571;41.610;25.380;2023-02-28T01:03:35;24.00;;;7.70;;
40849;SDS011;26571;41.610;25.380;2023-02-28T01:06:00;16.90;;;8.05;;
40849;SDS011;26571;41.610;25.380;2023-02-28T01:08:26;25.02;;;7.72;;
40849;SDS011;26571;41.610;25.380;2023-02-28T01:10:51;21.08;;;7.75;;
40849;SDS011;26571;41.610;25.380;2023-02-28T01:13:17;24.23;;;7.45;;
40849;SDS011;26571;41.610;25.380;2023-02-28T01:15:49;20.48;;;7.28;;
40849;SDS011;26571;41.610;25.380;2023-02-28T01:18:16;19.58;;;7.40;;
40849;SDS011;26571;41.610;25.380;2023-02-28T01:20:42;25.67;;;7.50;;
40849;SDS011;26571;41.610;25.380;2023-02-28T01:23:08;22.75;;;7.32;;
40849;SDS011;26571;41.610;25.380;2023-02-28T01:25:36;21.95;;;7.25;;
40849;SDS011;26571;41.610;25.380;2023-02-28T01:28:02;16.15;;;6.00;;
40849;SDS011;26571;41.610;25.380;2023-02-28T01:30:28;19.63;;;6.20;;
40849;SDS011;26571;41.610;25.380;2023-02-28T01:32:53;13.77;;;6.45;;
40849;SDS011;26571;41.610;25.380;2023-02-28T01:35:19;20.65;;;8.02;;
40849;SDS011;26571;41.610;25.380;2023-02-28T01:37:45;18.65;;;7.35;;
40849;SDS011;26571;41.610;25.380;2023-02-28T01:40:10;15.13;;;5.60;;
40849;SDS011;26571;41.610;25.380;2023-02-28T01:42:36;19.88;;;8.32;;
40849;SDS011;26571;41.610;25.380;2023-02-28T01:47:42;18.40;;;6.85;;
40849;SDS011;26571;41.610;25.380;2023-02-28T01:50:16;17.50;;;6.70;;
40849;SDS011;26571;41.610;25.380;2023-02-28T01:52:52;23.58;;;6.82;;
40849;SDS011;26571;41.610;25.380;2023-02-28T01:55:21;17.67;;;4.35;;
40849;SDS011;26571;41.610;25.380;2023-02-28T01:57:50;19.38;;;4.78;;
40849;SDS011;26571;41.610;25.380;2023-02-28T02:00:20;22.83;;;5.35;;
40849;SDS011;26571;41.610;25.380;2023-02-28T02:02:49;22.00;;;5.30;;
40849;SDS011;26571;41.610;25.380;2023-02-28T02:05:21;23.63;;;6.18;;
40849;SDS011;26571;41.610;25.380;2023-02-28T02:07:50;21.55;;;5.10;;
40849;SDS011;26571;41.610;25.380;2023-02-28T02:10:20;15.90;;;5.18;;
40849;SDS011;26571;41.610;25.380;2023-02-28T02:18:52;20.73;;;4.15;;
40849;SDS011;26571;41.610;25.380;2023-02-28T02:32:34;22.33;;;6.75;;
40849;SDS011;26571;41.610;25.380;2023-02-28T02:38:30;30.27;;;11.70;;
40849;SDS011;26571;41.610;25.380;2023-02-28T02:41:03;28.65;;;14.32;;
40849;SDS011;26571;41.610;25.380;2023-02-28T02:43:36;22.83;;;8.20;;
40849;SDS011;26571;41.610;25.380;2023-02-28T02:46:53;34.55;;;8.23;;
40849;SDS011;26571;41.610;25.380;2023-02-28T02:49:04;30.73;;;6.95;;
40849;SDS011;26571;41.610;25.380;2023-02-28T02:51:34;22.98;;;6.35;;
40849;SDS011;26571;41.610;25.380;2023-02-28T02:54:17;19.42;;;7.97;;
40849;SDS011;26571;41.610;25.380;2023-02-28T02:56:46;35.38;;;6.97;;
40849;SDS011;26571;41.610;25.380;2023-02-28T02:59:13;19.92;;;6.25;;
40849;SDS011;26571;41.610;25.380;2023-02-28T03:01:46;31.77;;;7.22;;
40849;SDS011;26571;41.610;25.380;2023-02-28T03:04:17;25.00;;;7.70;;
40849;SDS011;26571;41.610;25.380;2023-02-28T03:06:44;25.58;;;5.80;;
40849;SDS011;26571;41.610;25.380;2023-02-28T03:09:10;23.77;;;6.55;;
40849;SDS011;26571;41.610;25.380;2023-02-28T03:11:36;25.38;;;5.15;;
40849;SDS011;26571;41.610;25.380;2023-02-28T03:21:40;31.85;;;6.78;;
40849;SDS011;26571;41.610;25.380;2023-02-28T03:27:25;15.32;;;3.80;;
40849;SDS011;26571;41.610;25.380;2023-02-28T03:30:05;21.85;;;4.80;;
40849;SDS011;26571;41.610;25.380;2023-02-28T03:35:19;18.85;;;4.68;;
40849;SDS011;26571;41.610;25.380;2023-02-28T03:37:48;21.42;;;3.83;;
40849;SDS011;26571;41.610;25.380;2023-02-28T03:40:19;14.93;;;5.18;;
40849;SDS011;26571;41.610;25.380;2023-02-28T03:42:49;20.77;;;6.18;;
40849;SDS011;26571;41.610;25.380;2023-02-28T03:45:23;21.15;;;6.20;;
40849;SDS011;26571;41.610;25.380;2023-02-28T03:48:02;30.13;;;5.00;;
40849;SDS011;26571;41.610;25.380;2023-02-28T03:50:41;22.77;;;5.55;;
40849;SDS011;26571;41.610;25.380;2023-02-28T03:55:59;24.30;;;5.20;;
40849;SDS011;26571;41.610;25.380;2023-02-28T03:58:32;22.88;;;5.65;;
40849;SDS011;26571;41.610;25.380;2023-02-28T04:01:09;20.95;;;4.80;;
40849;SDS011;26571;41.610;25.380;2023-02-28T04:03:40;28.35;;;6.07;;
40849;SDS011;26571;41.610;25.380;2023-02-28T04:06:08;21.05;;;5.15;;
40849;SDS011;26571;41.610;25.380;2023-02-28T04:08:42;28.08;;;5.32;;
40849;SDS011;26571;41.610;25.380;2023-02-28T04:13:55;29.15;;;5.50;;
40849;SDS011;26571;41.610;25.380;2023-02-28T04:16:20;13.40;;;3.70;;
40849;SDS011;26571;41.610;25.380;2023-02-28T04:18:46;24.55;;;5.05;;
40849;SDS011;26571;41.610;25.380;2023-02-28T04:21:11;29.92;;;7.25;;
40849;SDS011;26571;41.610;25.380;2023-02-28T04:23:37;27.95;;;4.10;;
40849;SDS011;26571;41.610;25.380;2023-02-28T04:26:03;27.63;;;6.47;;
40849;SDS011;26571;41.610;25.380;2023-02-28T04:28:29;31.20;;;6.13;;
40849;SDS011;26571;41.610;25.380;2023-02-28T04:30:58;18.35;;;5.32;;
40849;SDS011;26571;41.610;25.380;2023-02-28T04:33:25;24.20;;;5.10;;
40849;SDS011;26571;41.610;25.380;2023-02-28T04:38:33;19.58;;;5.03;;
40849;SDS011;26571;41.610;25.380;2023-02-28T04:43:26;17.25;;;4.55;;
40849;SDS011;26571;41.610;25.380;2023-02-28T04:45:53;24.85;;;6.07;;
40849;SDS011;26571;41.610;25.380;2023-02-28T04:48:22;20.48;;;5.55;;
40849;SDS011;26571;41.610;25.380;2023-02-28T04:50:52;26.77;;;5.18;;
40849;SDS011;26571;41.610;25.380;2023-02-28T04:53:17;21.67;;;5.10;;
40849;SDS011;26571;41.610;25.380;2023-02-28T04:55:43;29.90;;;6.65;;
40849;SDS011;26571;41.610;25.380;2023-02-28T04:58:09;15.68;;;5.47;;
40849;SDS011;26571;41.610;25.380;2023-02-28T05:00:35;21.40;;;6.10;;
40849;SDS011;26571;41.610;25.380;2023-02-28T05:03:00;15.55;;;5.72;;
40849;SDS011;26571;41.610;25.380;2023-02-28T05:05:26;20.02;;;7.32;;
40849;SDS011;26571;41.610;25.380;2023-02-28T05:07:51;24.75;;;6.75;;
40849;SDS011;26571;41.610;25.380;2023-02-28T05:10:18;21.85;;;6.60;;
40849;SDS011;26571;41.610;25.380;2023-02-28T05:12:44;19.80;;;8.23;;
40849;SDS011;26571;41.610;25.380;2023-02-28T05:15:12;15.20;;;8.77;;
40849;SDS011;26571;41.610;25.380;2023-02-28T05:17:38;23.42;;;7.60;;
40849;SDS011;26571;41.610;25.380;2023-02-28T05:20:04;23.30;;;9.65;;
40849;SDS011;26571;41.610;25.380;2023-02-28T05:22:31;16.23;;;8.67;;
40849;SDS011;26571;41.610;25.380;2023-02-28T05:24:56;21.52;;;13.60;;
40849;SDS011;26571;41.610;25.380;2023-02-28T05:27:22;20.15;;;10.70;;
40849;SDS011;26571;41.610;25.380;2023-02-28T05:29:47;19.75;;;10.98;;
40849;SDS011;26571;41.610;25.380;2023-02-28T05:32:14;14.60;;;8.25;;
40849;SDS011;26571;41.610;25.380;2023-02-28T05:34:40;14.43;;;7.20;;
40849;SDS011;26571;41.610;25.380;2023-02-28T05:37:06;20.75;;;8.82;;
40849;SDS011;26571;41.610;25.380;2023-02-28T05:39:37;12.02;;;8.77;;
40849;SDS011;26571;41.610;25.380;2023-02-28T05:42:02;22.40;;;11.35;;
40849;SDS011;26571;41.610;25.380;2023-02-28T05:44:28;15.18;;;9.68;;
40849;SDS011;26571;41.610;25.380;2023-02-28T05:46:53;15.02;;;9.75;;
40849;SDS011;26571;41.610;25.380;2023-02-28T05:49:19;15.50;;;10.02;;
40849;SDS011;26571;41.610;25.380;2023-02-28T05:51:44;19.90;;;10.40;;
40849;SDS011;26571;41.610;25.380;2023-02-28T05:54:10;17.83;;;10.15;;
40849;SDS011;26571;41.610;25.380;2023-02-28T05:56:35;13.90;;;10.50;;
40849;SDS011;26571;41.610;25.380;2023-02-28T05:59:02;18.00;;;12.40;;
40849;SDS011;26571;41.610;25.380;2023-02-28T06:01:35;15.25;;;11.00;;
40849;SDS011;26571;41.610;25.380;2023-02-28T06:04:04;17.63;;;10.88;;
40849;SDS011;26571;41.610;25.380;2023-02-28T06:06:32;20.17;;;12.57;;
40849;SDS011;26571;41.610;25.380;2023-02-28T06:08:59;19.50;;;10.90;;
40849;SDS011;26571;41.610;25.380;2023-02-28T06:11:25;17.27;;;11.63;;
40849;SDS011;26571;41.610;25.380;2023-02-28T06:13:55;14.75;;;10.82;;
40849;SDS011;26571;41.610;25.380;2023-02-28T06:16:22;10.38;;;8.60;;
40849;SDS011;26571;41.610;25.380;2023-02-28T06:18:48;12.27;;;8.43;;
40849;SDS011;26571;41.610;25.380;2023-02-28T06:21:13;14.60;;;9.48;;
40849;SDS011;26571;41.610;25.380;2023-02-28T06:23:38;12.60;;;9.68;;
40849;SDS011;26571;41.610;25.380;2023-02-28T06:26:04;13.60;;;10.90;;
40849;SDS011;26571;41.610;25.380;2023-02-28T06:28:30;16.50;;;9.75;;
40849;SDS011;26571;41.610;25.380;2023-02-28T06:30:56;10.98;;;8.73;;
40849;SDS011;26571;41.610;25.380;2023-02-28T06:33:21;12.65;;;9.18;;
40849;SDS011;26571;41.610;25.380;2023-02-28T06:35:49;13.75;;;7.90;;
40849;SDS011;26571;41.610;25.380;2023-02-28T06:38:15;18.25;;;9.73;;
40849;SDS011;26571;41.610;25.380;2023-02-28T06:40:40;10.20;;;8.90;;
40849;SDS011;26571;41.610;25.380;2023-02-28T06:43:06;17.10;;;10.23;;
40849;SDS011;26571;41.610;25.380;2023-02-28T06:45:32;13.88;;;9.55;;
40849;SDS011;26571;41.610;25.380;2023-02-28T06:47:57;25.60;;;10.90;;
40849;SDS011;26571;41.610;25.380;2023-02-28T06:50:23;12.25;;;7.78;;
40849;SDS011;26571;41.610;25.380;2023-02-28T06:52:48;17.67;;;12.35;;
40849;SDS011;26571;41.610;25.380;2023-02-28T06:55:18;9.98;;;8.27;;
40849;SDS011;26571;41.610;25.380;2023-02-28T06:57:44;17.23;;;12.15;;
40849;SDS011;26571;41.610;25.380;2023-02-28T07:00:10;10.88;;;7.20;;
40849;SDS011;26571;41.610;25.380;2023-02-28T07:02:36;17.42;;;8.68;;
40849;SDS011;26571;41.610;25.380;2023-02-28T07:05:02;9.97;;;8.50;;
40849;SDS011;26571;41.610;25.380;2023-02-28T07:07:29;11.43;;;8.50;;
40849;SDS011;26571;41.610;25.380;2023-02-28T07:09:54;13.05;;;9.50;;
40849;SDS011;26571;41.610;25.380;2023-02-28T07:12:20;18.13;;;9.38;;
40849;SDS011;26571;41.610;25.380;2023-02-28T07:14:46;12.25;;;8.68;;
40849;SDS011;26571;41.610;25.380;2023-02-28T07:17:11;12.77;;;9.50;;
40849;SDS011;26571;41.610;25.380;2023-02-28T07:19:37;21.77;;;12.52;;
40849;SDS011;26571;41.610;25.380;2023-02-28T07:22:03;55.13;;;29.73;;
40849;SDS011;26571;41.610;25.380;2023-02-28T07:24:29;17.73;;;9.23;;
40849;SDS011;26571;41.610;25.380;2023-02-28T07:26:55;14.60;;;10.45;;
40849;SDS011;26571;41.610;25.380;2023-02-28T07:29:20;18.10;;;11.35;;
40849;SDS011;26571;41.610;25.380;2023-02-28T07:31:46;35.13;;;19.45;;
40849;SDS011;26571;41.610;25.380;2023-02-28T07:34:12;48.78;;;31.20;;
40849;SDS011;26571;41.610;25.380;2023-02-28T07:36:38;31.23;;;21.50;;
40849;SDS011;26571;41.610;25.380;2023-02-28T07:39:03;12.95;;;11.38;;
40849;SDS011;26571;41.610;25.380;2023-02-28T07:41:29;16.42;;;10.55;;
40849;SDS011;26571;41.610;25.380;2023-02-28T07:43:58;18.90;;;12.52;;
40849;SDS011;26571;41.610;25.380;2023-02-28T07:46:24;14.85;;;10.85;;
40849;SDS011;26571;41.610;25.380;2023-02-28T07:48:50;20.98;;;15.38;;
40849;SDS011;26571;41.610;25.380;2023-02-28T07:51:15;20.75;;;14.50;;
40849;SDS011;26571;41.610;25.380;2023-02-28T07:53:41;15.82;;;13.30;;
40849;SDS011;26571;41.610;25.380;2023-02-28T07:56:07;19.98;;;13.82;;
40849;SDS011;26571;41.610;25.380;2023-02-28T07:58:33;15.00;;;12.05;;
40849;SDS011;26571;41.610;25.380;2023-02-28T08:01:05;21.20;;;16.38;;
40849;SDS011;26571;41.610;25.380;2023-02-28T08:03:32;19.02;;;15.70;;
40849;SDS011;26571;41.610;25.380;2023-02-28T08:05:57;22.48;;;16.38;;
40849;SDS011;26571;41.610;25.380;2023-02-28T08:08:23;19.92;;;14.48;;
40849;SDS011;26571;41.610;25.380;2023-02-28T08:10:48;21.58;;;15.32;;
40849;SDS011;26571;41.610;25.380;2023-02-28T08:13:13;14.10;;;12.27;;
40849;SDS011;26571;41.610;25.380;2023-02-28T08:15:40;14.82;;;10.98;;
40849;SDS011;26571;41.610;25.380;2023-02-28T08:18:07;16.77;;;11.68;;
40849;SDS011;26571;41.610;25.380;2023-02-28T08:20:33;13.60;;;12.20;;
40849;SDS011;26571;41.610;25.380;2023-02-28T08:36:51;21.67;;;14.48;;
40849;SDS011;26571;41.610;25.380;2023-02-28T08:39:16;18.38;;;14.68;;
40849;SDS011;26571;41.610;25.380;2023-02-28T08:41:42;18.45;;;13.75;;
40849;SDS011;26571;41.610;25.380;2023-02-28T08:44:09;21.50;;;14.15;;
40849;SDS011;26571;41.610;25.380;2023-02-28T08:46:34;13.63;;;12.23;;
40849;SDS011;26571;41.610;25.380;2023-02-28T08:48:59;17.08;;;14.88;;
40849;SDS011;26571;41.610;25.380;2023-02-28T08:51:26;21.52;;;14.95;;
40849;SDS011;26571;41.610;25.380;2023-02-28T08:53:54;19.85;;;11.70;;
40849;SDS011;26571;41.610;25.380;2023-02-28T08:56:24;20.33;;;14.38;;
40849;SDS011;26571;41.610;25.380;2023-02-28T08:58:51;23.23;;;14.35;;
40849;SDS011;26571;41.610;25.380;2023-02-28T09:01:20;21.48;;;12.05;;
40849;SDS011;26571;41.610;25.380;2023-02-28T09:03:48;21.63;;;12.65;;
40849;SDS011;26571;41.610;25.380;2023-02-28T09:06:15;22.70;;;13.00;;
40849;SDS011;26571;41.610;25.380;2023-02-28T09:08:42;16.85;;;12.43;;
40849;SDS011;26571;41.610;25.380;2023-02-28T09:11:08;19.17;;;13.73;;
40849;SDS011;26571;41.610;25.380;2023-02-28T09:13:34;16.15;;;12.82;;
40849;SDS011;26571;41.610;25.380;2023-02-28T09:16:01;13.48;;;11.07;;
40849;SDS011;26571;41.610;25.380;2023-02-28T09:18:28;17.33;;;12.70;;
40849;SDS011;26571;41.610;25.380;2023-02-28T09:20:54;13.82;;;12.50;;
40849;SDS011;26571;41.610;25.380;2023-02-28T09:23:20;16.23;;;13.98;;
40849;SDS011;26571;41.610;25.380;2023-02-28T09:25:47;12.40;;;11.18;;
40849;SDS011;26571;41.610;25.380;2023-02-28T09:28:14;15.32;;;10.50;;
40849;SDS011;26571;41.610;25.380;2023-02-28T09:30:41;12.77;;;9.98;;
40849;SDS011;26571;41.610;25.380;2023-02-28T09:33:06;14.05;;;10.02;;
40849;SDS011;26571;41.610;25.380;2023-02-28T09:35:32;29.17;;;20.17;;
40849;SDS011;26571;41.610;25.380;2023-02-28T09:37:57;15.45;;;11.63;;
40849;SDS011;26571;41.610;25.380;2023-02-28T09:40:23;15.23;;;13.73;;
40849;SDS011;26571;41.610;25.380;2023-02-28T09:47:48;11.13;;;10.02;;
40849;SDS011;26571;41.610;25.380;2023-02-28T09:52:48;12.65;;;11.38;;
40849;SDS011;26571;41.610;25.380;2023-02-28T09:57:41;12.23;;;10.10;;
40849;SDS011;26571;41.610;25.380;2023-02-28T10:00:12;16.10;;;14.50;;
40849;SDS011;26571;41.610;25.380;2023-02-28T10:10:51;15.07;;;11.07;;
40849;SDS011;26571;41.610;25.380;2023-02-28T10:16:22;13.85;;;9.95;;
40849;SDS011;26571;41.610;25.380;2023-02-28T10:19:09;12.00;;;10.00;;
40849;SDS011;26571;41.610;25.380;2023-02-28T10:21:44;13.07;;;10.63;;
40849;SDS011;26571;41.610;25.380;2023-02-28T10:26:46;14.07;;;11.68;;
40849;SDS011;26571;41.610;25.380;2023-02-28T10:29:13;13.77;;;12.38;;
40849;SDS011;26571;41.610;25.380;2023-02-28T10:31:39;18.27;;;11.75;;
40849;SDS011;26571;41.610;25.380;2023-02-28T10:34:05;14.23;;;12.63;;
40849;SDS011;26571;41.610;25.380;2023-02-28T10:36:31;15.50;;;11.82;;
40849;SDS011;26571;41.610;25.380;2023-02-28T10:38:57;12.98;;;11.50;;
40849;SDS011;26571;41.610;25.380;2023-02-28T10:44:12;16.38;;;11.90;;
40849;SDS011;26571;41.610;25.380;2023-02-28T10:46:39;13.68;;;11.65;;
40849;SDS011;26571;41.610;25.380;2023-02-28T10:49:12;17.27;;;14.48;;
40849;SDS011;26571;41.610;25.380;2023-02-28T10:51:40;21.23;;;14.25;;
40849;SDS011;26571;41.610;25.380;2023-02-28T10:54:10;19.98;;;15.93;;
40849;SDS011;26571;41.610;25.380;2023-02-28T10:56:41;15.77;;;12.80;;
40849;SDS011;26571;41.610;25.380;2023-02-28T11:01:37;13.43;;;11.73;;
40849;SDS011;26571;41.610;25.380;2023-02-28T11:06:46;19.65;;;12.52;;
40849;SDS011;26571;41.610;25.380;2023-02-28T11:11:50;18.60;;;13.40;;
40849;SDS011;26571;41.610;25.380;2023-02-28T11:14:27;16.13;;;12.85;;
40849;SDS011;26571;41.610;25.380;2023-02-28T11:16:56;14.85;;;12.40;;
40849;SDS011;26571;41.610;25.380;2023-02-28T11:19:31;17.02;;;12.98;;
40849;SDS011;26571;41.610;25.380;2023-02-28T11:22:06;19.10;;;13.18;;
40849;SDS011;26571;41.610;25.380;2023-02-28T11:24:33;18.83;;;12.38;;
40849;SDS011;26571;41.610;25.380;2023-02-28T11:27:02;19.35;;;14.10;;
40849;SDS011;26571;41.610;25.380;2023-02-28T11:29:29;23.92;;;15.65;;
40849;SDS011;26571;41.610;25.380;2023-02-28T11:32:04;19.90;;;15.57;;
40849;SDS011;26571;41.610;25.380;2023-02-28T11:34:34;16.40;;;13.18;;
40849;SDS011;26571;41.610;25.380;2023-02-28T11:37:02;16.35;;;14.05;;
40849;SDS011;26571;41.610;25.380;2023-02-28T11:39:30;18.83;;;13.93;;
40849;SDS011;26571;41.610;25.380;2023-02-28T11:52:51;22.50;;;17.95;;
40849;SDS011;26571;41.610;25.380;2023-02-28T11:58:05;16.05;;;12.82;;
40849;SDS011;26571;41.610;25.380;2023-02-28T12:01:10;21.00;;;12.25;;
40849;SDS011;26571;41.610;25.380;2023-02-28T12:03:58;17.08;;;12.82;;
40849;SDS011;26571;41.610;25.380;2023-02-28T12:14:30;14.27;;;10.63;;
40849;SDS011;26571;41.610;25.380;2023-02-28T12:20:45;7.47;;;6.78;;
40849;SDS011;26571;41.610;25.380;2023-02-28T12:28:43;32.60;;;23.35;;
40849;SDS011;26571;41.610;25.380;2023-02-28T12:31:17;37.33;;;23.50;;
40849;SDS011;26571;41.610;25.380;2023-02-28T12:34:10;17.38;;;12.40;;
40849;SDS011;26571;41.610;25.380;2023-02-28T12:36:36;10.85;;;7.95;;
40849;SDS011;26571;41.610;25.380;2023-02-28T12:39:04;9.55;;;6.90;;
40849;SDS011;26571;41.610;25.380;2023-02-28T12:44:12;12.38;;;10.18;;
40849;SDS011;26571;41.610;25.380;2023-02-28T12:46:43;12.30;;;8.88;;
40849;SDS011;26571;41.610;25.380;2023-02-28T13:06:47;8.15;;;7.32;;
40849;SDS011;26571;41.610;25.380;2023-02-28T13:09:32;5.95;;;5.32;;
40849;SDS011;26571;41.610;25.380;2023-02-28T13:11:58;10.70;;;7.55;;
40849;SDS011;26571;41.610;25.380;2023-02-28T13:14:35;8.55;;;7.68;;
40849;SDS011;26571;41.610;25.380;2023-02-28T13:19:43;13.43;;;10.07;;
40849;SDS011;26571;41.610;25.380;2023-02-28T13:22:18;8.50;;;7.38;;
40849;SDS011;26571;41.610;25.380;2023-02-28T13:24:47;8.77;;;7.88;;
40849;SDS011;26571;41.610;25.380;2023-02-28T13:27:33;9.60;;;8.13;;
40849;SDS011;26571;41.610;25.380;2023-02-28T13:30:49;12.80;;;8.88;;
40849;SDS011;26571;41.610;25.380;2023-02-28T13:38:59;8.57;;;7.78;;
40849;SDS011;26571;41.610;25.380;2023-02-28T13:44:03;8.48;;;7.43;;
40849;SDS011;26571;41.610;25.380;2023-02-28T13:51:46;10.30;;;9.32;;
40849;SDS011;26571;41.610;25.380;2023-02-28T13:54:19;10.32;;;8.75;;
40849;SDS011;26571;41.610;25.380;2023-02-28T13:59:49;6.43;;;5.93;;
40849;SDS011;26571;41.610;25.380;2023-02-28T14:05:02;7.70;;;5.93;;
40849;SDS011;26571;41.610;25.380;2023-02-28T14:07:43;8.13;;;7.32;;
40849;SDS011;26571;41.610;25.380;2023-02-28T14:10:20;4.57;;;4.18;;
40849;SDS011;26571;41.610;25.380;2023-02-28T14:18:06;7.10;;;6.40;;
40849;SDS011;26571;41.610;25.380;2023-02-28T14:20:47;6.85;;;5.63;;
40849;SDS011;26571;41.610;25.380;2023-02-28T14:26:12;6.23;;;5.73;;
40849;SDS011;26571;41.610;25.380;2023-02-28T14:37:53;6.00;;;5.50;;
40849;SDS011;26571;41.610;25.380;2023-02-28T14:42:54;5.68;;;5.18;;
40849;SDS011;26571;41.610;25.380;2023-02-28T14:45:22;4.68;;;4.28;;
40849;SDS011;26571;41.610;25.380;2023-02-28T14:47:51;11.13;;;9.93;;
40849;SDS011;26571;41.610;25.380;2023-02-28T14:50:18;22.77;;;17.85;;
40849;SDS011;26571;41.610;25.380;2023-02-28T14:52:50;8.65;;;7.75;;
40849;SDS011;26571;41.610;25.380;2023-02-28T14:55:18;5.45;;;4.97;;
40849;SDS011;26571;41.610;25.380;2023-02-28T14:57:52;4.85;;;4.43;;
40849;SDS011;26571;41.610;25.380;2023-02-28T15:00:30;4.88;;;4.57;;
40849;SDS011;26571;41.610;25.380;2023-02-28T15:02:57;6.55;;;5.88;;
40849;SDS011;26571;41.610;25.380;2023-02-28T15:05:30;7.53;;;6.90;;
40849;SDS011;26571;41.610;25.380;2023-02-28T15:08:15;13.00;;;9.63;;
40849;SDS011;26571;41.610;25.380;2023-02-28T15:10:42;18.20;;;11.55;;
40849;SDS011;26571;41.610;25.380;2023-02-28T15:13:11;18.85;;;14.18;;
40849;SDS011;26571;41.610;25.380;2023-02-28T15:18:15;12.57;;;11.30;;
40849;SDS011;26571;41.610;25.380;2023-02-28T15:21:41;14.13;;;12.32;;
40849;SDS011;26571;41.610;25.380;2023-02-28T15:24:04;10.10;;;9.10;;
40849;SDS011;26571;41.610;25.380;2023-02-28T15:26:37;11.82;;;9.00;;
40849;SDS011;26571;41.610;25.380;2023-02-28T15:29:06;14.77;;;11.50;;
40849;SDS011;26571;41.610;25.380;2023-02-28T15:31:40;12.38;;;11.05;;
40849;SDS011;26571;41.610;25.380;2023-02-28T15:34:19;11.05;;;9.07;;
40849;SDS011;26571;41.610;25.380;2023-02-28T15:36:46;13.38;;;11.52;;
40849;SDS011;26571;41.610;25.380;2023-02-28T15:39:19;11.40;;;10.27;;
40849;SDS011;26571;41.610;25.380;2023-02-28T15:41:46;11.95;;;10.82;;
40849;SDS011;26571;41.610;25.380;2023-02-28T15:46:45;24.95;;;14.27;;
40849;SDS011;26571;41.610;25.380;2023-02-28T15:49:24;13.65;;;12.25;;
40849;SDS011;26571;41.610;25.380;2023-02-28T15:51:50;14.37;;;12.87;;
40849;SDS011;26571;41.610;25.380;2023-02-28T15:54:20;19.25;;;15.18;;
40849;SDS011;26571;41.610;25.380;2023-02-28T15:56:52;13.70;;;12.25;;
40849;SDS011;26571;41.610;25.380;2023-02-28T15:59:22;13.30;;;11.60;;
40849;SDS011;26571;41.610;25.380;2023-02-28T16:04:35;16.13;;;14.55;;
40849;SDS011;26571;41.610;25.380;2023-02-28T16:07:02;24.25;;;17.80;;
40849;SDS011;26571;41.610;25.380;2023-02-28T16:09:30;15.07;;;12.60;;
40849;SDS011;26571;41.610;25.380;2023-02-28T16:11:56;12.50;;;11.27;;
40849;SDS011;26571;41.610;25.380;2023-02-28T16:14:27;11.40;;;10.20;;
40849;SDS011;26571;41.610;25.380;2023-02-28T16:16:56;5.40;;;5.00;;
40849;SDS011;26571;41.610;25.380;2023-02-28T16:19:30;7.43;;;6.68;;
40849;SDS011;26571;41.610;25.380;2023-02-28T16:21:56;6.50;;;5.90;;
40849;SDS011;26571;41.610;25.380;2023-02-28T16:24:21;7.95;;;7.15;;
40849;SDS011;26571;41.610;25.380;2023-02-28T16:26:47;12.35;;;11.25;;
40849;SDS011;26571;41.610;25.380;2023-02-28T16:29:23;14.15;;;11.95;;
40849;SDS011;26571;41.610;25.380;2023-02-28T16:31:52;12.68;;;11.48;;
40849;SDS011;26571;41.610;25.380;2023-02-28T16:34:18;7.25;;;6.65;;
40849;SDS011;26571;41.610;25.380;2023-02-28T16:36:46;7.53;;;6.88;;
40849;SDS011;26571;41.610;25.380;2023-02-28T16:39:12;9.23;;;8.00;;
40849;SDS011;26571;41.610;25.380;2023-02-28T16:41:38;9.07;;;8.23;;
40849;SDS011;26571;41.610;25.380;2023-02-28T16:44:09;13.10;;;11.80;;
40849;SDS011;26571;41.610;25.380;2023-02-28T16:46:38;10.13;;;9.30;;
40849;SDS011;26571;41.610;25.380;2023-02-28T16:49:03;13.68;;;12.30;;
40849;SDS011;26571;41.610;25.380;2023-02-28T16:51:29;24.05;;;20.58;;
40849;SDS011;26571;41.610;25.380;2023-02-28T16:53:54;8.52;;;7.57;;
40849;SDS011;26571;41.610;25.380;2023-02-28T16:56:21;19.02;;;16.27;;
40849;SDS011;26571;41.610;25.380;2023-02-28T16:58:49;33.28;;;25.70;;
40849;SDS011;26571;41.610;25.380;2023-02-28T17:01:15;20.23;;;16.30;;
40849;SDS011;26571;41.610;25.380;2023-02-28T17:03:41;12.48;;;10.68;;
40849;SDS011;26571;41.610;25.380;2023-02-28T17:06:21;11.80;;;10.63;;
40849;SDS011;26571;41.610;25.380;2023-02-28T17:08:49;8.27;;;7.43;;
40849;SDS011;26571;41.610;25.380;2023-02-28T17:11:15;10.68;;;9.60;;
40849;SDS011;26571;41.610;25.380;2023-02-28T17:13:41;7.85;;;7.15;;
40849;SDS011;26571;41.610;25.380;2023-02-28T17:16:09;4.05;;;3.70;;
40849;SDS011;26571;41.610;25.380;2023-02-28T17:18:50;5.07;;;4.68;;
40849;SDS011;26571;41.610;25.380;2023-02-28T17:21:16;4.20;;;3.22;;
40849;SDS011;26571;41.610;25.380;2023-02-28T17:23:42;2.50;;;2.40;;
40849;SDS011;26571;41.610;25.380;2023-02-28T17:26:14;3.00;;;2.90;;
40849;SDS011;26571;41.610;25.380;2023-02-28T17:28:45;3.25;;;3.05;;
40849;SDS011;26571;41.610;25.380;2023-02-28T17:31:11;3.17;;;2.92;;
40849;SDS011;26571;41.610;25.380;2023-02-28T17:33:37;5.38;;;4.43;;
40849;SDS011;26571;41.610;25.380;2023-02-28T17:36:03;5.65;;;5.25;;
40849;SDS011;26571;41.610;25.380;2023-02-28T17:38:28;8.45;;;7.75;;
40849;SDS011;26571;41.610;25.380;2023-02-28T17:40:54;8.25;;;7.30;;
40849;SDS011;26571;41.610;25.380;2023-02-28T17:43:22;6.57;;;5.95;;